sensor_id;sensor_type;location;lat;lon;timestamp;P1;durP1;ratioP1;P2;durP2;ratioP2
53927;SDS011;39837;47.630;18.822;2022-07-12T00:01:17;2.95;;;2.13;;
53927;SDS011;39837;47.630;18.822;2022-07-12T00:04:02;2.38;;;2.13;;
53927;SDS011;39837;47.630;18.822;2022-07-12T00:06:46;1.52;;;1.52;;
53927;SDS011;39837;47.630;18.822;2022-07-12T00:09:30;1.88;;;1.77;;
53927;SDS011;39837;47.630;18.822;2022-07-12T00:12:14;2.20;;;2.10;;
53927;SDS011;39837;47.630;18.822;2022-07-12T00:14:58;5.82;;;1.80;;
53927;SDS011;39837;47.630;18.822;2022-07-12T00:17:42;2.40;;;1.80;;
53927;SDS011;39837;47.630;18.822;2022-07-12T00:20:26;1.88;;;1.80;;
53927;SDS011;39837;47.630;18.822;2022-07-12T00:23:10;1.88;;;1.80;;
53927;SDS011;39837;47.630;18.822;2022-07-12T00:25:54;1.55;;;1.55;;
53927;SDS011;39837;47.630;18.822;2022-07-12T00:28:39;1.73;;;1.63;;
53927;SDS011;39837;47.630;18.822;2022-07-12T00:31:23;1.48;;;1.48;;
53927;SDS011;39837;47.630;18.822;2022-07-12T00:34:07;1.20;;;1.20;;
53927;SDS011;39837;47.630;18.822;2022-07-12T00:36:51;7.25;;;1.98;;
53927;SDS011;39837;47.630;18.822;2022-07-12T00:39:34;2.40;;;1.70;;
53927;SDS011;39837;47.630;18.822;2022-07-12T00:42:18;1.70;;;1.60;;
53927;SDS011;39837;47.630;18.822;2022-07-12T00:45:03;1.48;;;1.38;;
53927;SDS011;39837;47.630;18.822;2022-07-12T00:47:47;3.42;;;1.80;;
53927;SDS011;39837;47.630;18.822;2022-07-12T00:50:33;1.80;;;1.80;;
53927;SDS011;39837;47.630;18.822;2022-07-12T00:53:17;1.80;;;1.60;;
53927;SDS011;39837;47.630;18.822;2022-07-12T00:56:07;1.50;;;1.50;;
53927;SDS011;39837;47.630;18.822;2022-07-12T00:58:50;1.50;;;1.45;;
53927;SDS011;39837;47.630;18.822;2022-07-12T01:01:36;3.63;;;2.05;;
53927;SDS011;39837;47.630;18.822;2022-07-12T01:04:20;2.00;;;1.90;;
53927;SDS011;39837;47.630;18.822;2022-07-12T01:07:04;1.75;;;1.50;;
53927;SDS011;39837;47.630;18.822;2022-07-12T01:09:48;2.53;;;1.70;;
53927;SDS011;39837;47.630;18.822;2022-07-12T01:12:32;1.30;;;1.30;;
53927;SDS011;39837;47.630;18.822;2022-07-12T01:15:17;1.45;;;1.45;;
53927;SDS011;39837;47.630;18.822;2022-07-12T01:18:02;2.03;;;1.92;;
53927;SDS011;39837;47.630;18.822;2022-07-12T01:20:46;10.75;;;2.00;;
53927;SDS011;39837;47.630;18.822;2022-07-12T01:23:31;1.33;;;1.33;;
53927;SDS011;39837;47.630;18.822;2022-07-12T01:26:15;2.88;;;2.00;;
53927;SDS011;39837;47.630;18.822;2022-07-12T01:28:59;1.35;;;1.35;;
53927;SDS011;39837;47.630;18.822;2022-07-12T01:31:43;2.22;;;1.83;;
53927;SDS011;39837;47.630;18.822;2022-07-12T01:34:28;1.95;;;1.85;;
53927;SDS011;39837;47.630;18.822;2022-07-12T01:37:13;2.22;;;2.00;;
53927;SDS011;39837;47.630;18.822;2022-07-12T01:39:58;2.05;;;1.60;;
53927;SDS011;39837;47.630;18.822;2022-07-12T01:42:42;1.55;;;1.55;;
53927;SDS011;39837;47.630;18.822;2022-07-12T01:45:27;5.88;;;2.00;;
53927;SDS011;39837;47.630;18.822;2022-07-12T01:48:11;1.98;;;1.88;;
53927;SDS011;39837;47.630;18.822;2022-07-12T01:50:55;2.20;;;2.10;;
53927;SDS011;39837;47.630;18.822;2022-07-12T01:53:39;5.63;;;1.70;;
53927;SDS011;39837;47.630;18.822;2022-07-12T01:56:23;3.13;;;1.67;;
53927;SDS011;39837;47.630;18.822;2022-07-12T01:59:07;2.20;;;2.10;;
53927;SDS011;39837;47.630;18.822;2022-07-12T02:01:51;2.25;;;1.70;;
53927;SDS011;39837;47.630;18.822;2022-07-12T02:04:36;2.80;;;2.03;;
53927;SDS011;39837;47.630;18.822;2022-07-12T02:07:20;1.75;;;1.73;;
53927;SDS011;39837;47.630;18.822;2022-07-12T02:10:05;1.83;;;1.75;;
53927;SDS011;39837;47.630;18.822;2022-07-12T02:12:51;1.50;;;1.50;;
53927;SDS011;39837;47.630;18.822;2022-07-12T02:15:35;1.80;;;1.80;;
53927;SDS011;39837;47.630;18.822;2022-07-12T02:18:19;1.95;;;1.90;;
53927;SDS011;39837;47.630;18.822;2022-07-12T02:21:03;2.33;;;1.98;;
53927;SDS011;39837;47.630;18.822;2022-07-12T02:23:47;2.28;;;2.13;;
53927;SDS011;39837;47.630;18.822;2022-07-12T02:26:35;2.10;;;2.00;;
53927;SDS011;39837;47.630;18.822;2022-07-12T02:29:19;1.42;;;1.42;;
53927;SDS011;39837;47.630;18.822;2022-07-12T02:32:03;2.05;;;1.90;;
53927;SDS011;39837;47.630;18.822;2022-07-12T02:34:48;2.10;;;2.00;;
53927;SDS011;39837;47.630;18.822;2022-07-12T02:37:31;1.90;;;1.80;;
53927;SDS011;39837;47.630;18.822;2022-07-12T02:40:15;1.60;;;1.60;;
53927;SDS011;39837;47.630;18.822;2022-07-12T02:43:19;2.00;;;1.90;;
53927;SDS011;39837;47.630;18.822;2022-07-12T02:46:07;2.10;;;1.90;;
53927;SDS011;39837;47.630;18.822;2022-07-12T02:48:52;5.45;;;2.72;;
53927;SDS011;39837;47.630;18.822;2022-07-12T02:51:36;1.70;;;1.60;;
53927;SDS011;39837;47.630;18.822;2022-07-12T02:54:21;1.77;;;1.67;;
53927;SDS011;39837;47.630;18.822;2022-07-12T02:57:04;1.90;;;1.80;;
53927;SDS011;39837;47.630;18.822;2022-07-12T02:59:48;2.08;;;1.80;;
53927;SDS011;39837;47.630;18.822;2022-07-12T03:02:33;1.55;;;1.55;;
53927;SDS011;39837;47.630;18.822;2022-07-12T03:05:17;7.30;;;2.08;;
53927;SDS011;39837;47.630;18.822;2022-07-12T03:08:01;2.13;;;2.03;;
53927;SDS011;39837;47.630;18.822;2022-07-12T03:10:48;2.33;;;1.92;;
53927;SDS011;39837;47.630;18.822;2022-07-12T03:13:32;5.28;;;2.10;;
53927;SDS011;39837;47.630;18.822;2022-07-12T03:16:16;2.30;;;2.13;;
53927;SDS011;39837;47.630;18.822;2022-07-12T03:19:00;1.90;;;1.77;;
53927;SDS011;39837;47.630;18.822;2022-07-12T03:21:44;1.50;;;1.50;;
53927;SDS011;39837;47.630;18.822;2022-07-12T03:24:28;2.00;;;1.90;;
53927;SDS011;39837;47.630;18.822;2022-07-12T03:27:13;1.80;;;1.70;;
53927;SDS011;39837;47.630;18.822;2022-07-12T03:29:57;2.00;;;1.73;;
53927;SDS011;39837;47.630;18.822;2022-07-12T03:32:41;3.03;;;2.10;;
53927;SDS011;39837;47.630;18.822;2022-07-12T03:35:26;1.70;;;1.45;;
53927;SDS011;39837;47.630;18.822;2022-07-12T03:38:10;1.73;;;1.73;;
53927;SDS011;39837;47.630;18.822;2022-07-12T03:40:54;2.30;;;2.10;;
53927;SDS011;39837;47.630;18.822;2022-07-12T03:43:38;3.58;;;2.03;;
53927;SDS011;39837;47.630;18.822;2022-07-12T03:46:22;1.90;;;1.83;;
53927;SDS011;39837;47.630;18.822;2022-07-12T03:49:06;1.95;;;1.85;;
53927;SDS011;39837;47.630;18.822;2022-07-12T03:51:50;2.50;;;2.22;;
53927;SDS011;39837;47.630;18.822;2022-07-12T03:54:34;2.13;;;1.98;;
53927;SDS011;39837;47.630;18.822;2022-07-12T03:57:18;2.03;;;1.92;;
53927;SDS011;39837;47.630;18.822;2022-07-12T04:00:04;2.15;;;2.00;;
53927;SDS011;39837;47.630;18.822;2022-07-12T04:02:55;2.00;;;1.85;;
53927;SDS011;39837;47.630;18.822;2022-07-12T04:05:39;9.35;;;2.00;;
53927;SDS011;39837;47.630;18.822;2022-07-12T04:08:23;2.00;;;1.90;;
53927;SDS011;39837;47.630;18.822;2022-07-12T04:11:08;8.73;;;2.38;;
53927;SDS011;39837;47.630;18.822;2022-07-12T04:13:51;2.63;;;2.13;;
53927;SDS011;39837;47.630;18.822;2022-07-12T04:16:35;1.75;;;1.75;;
53927;SDS011;39837;47.630;18.822;2022-07-12T04:19:19;2.03;;;1.92;;
53927;SDS011;39837;47.630;18.822;2022-07-12T04:22:07;2.28;;;2.08;;
53927;SDS011;39837;47.630;18.822;2022-07-12T04:24:52;1.98;;;1.88;;
53927;SDS011;39837;47.630;18.822;2022-07-12T04:27:36;1.70;;;1.60;;
53927;SDS011;39837;47.630;18.822;2022-07-12T04:30:20;1.70;;;1.60;;
53927;SDS011;39837;47.630;18.822;2022-07-12T04:33:04;6.05;;;3.00;;
53927;SDS011;39837;47.630;18.822;2022-07-12T04:35:49;2.10;;;1.85;;
53927;SDS011;39837;47.630;18.822;2022-07-12T04:38:33;2.15;;;2.03;;
53927;SDS011;39837;47.630;18.822;2022-07-12T04:41:16;2.70;;;2.45;;
53927;SDS011;39837;47.630;18.822;2022-07-12T04:44:02;1.67;;;1.58;;
53927;SDS011;39837;47.630;18.822;2022-07-12T04:46:48;1.60;;;1.58;;
53927;SDS011;39837;47.630;18.822;2022-07-12T04:49:31;2.38;;;2.28;;
53927;SDS011;39837;47.630;18.822;2022-07-12T04:52:16;5.38;;;2.20;;
53927;SDS011;39837;47.630;18.822;2022-07-12T04:55:00;1.92;;;1.90;;
53927;SDS011;39837;47.630;18.822;2022-07-12T04:57:44;2.00;;;1.90;;
53927;SDS011;39837;47.630;18.822;2022-07-12T05:00:28;3.28;;;2.15;;
53927;SDS011;39837;47.630;18.822;2022-07-12T05:03:13;1.83;;;1.83;;
53927;SDS011;39837;47.630;18.822;2022-07-12T05:05:57;1.73;;;1.73;;
53927;SDS011;39837;47.630;18.822;2022-07-12T05:08:41;2.30;;;2.20;;
53927;SDS011;39837;47.630;18.822;2022-07-12T05:11:25;4.20;;;2.10;;
53927;SDS011;39837;47.630;18.822;2022-07-12T05:14:10;2.42;;;2.22;;
53927;SDS011;39837;47.630;18.822;2022-07-12T05:16:53;3.00;;;2.20;;
53927;SDS011;39837;47.630;18.822;2022-07-12T05:19:37;2.33;;;2.30;;
53927;SDS011;39837;47.630;18.822;2022-07-12T05:22:22;3.17;;;2.50;;
53927;SDS011;39837;47.630;18.822;2022-07-12T05:25:07;3.13;;;2.20;;
53927;SDS011;39837;47.630;18.822;2022-07-12T05:27:52;2.55;;;2.30;;
53927;SDS011;39837;47.630;18.822;2022-07-12T05:30:36;2.70;;;2.33;;
53927;SDS011;39837;47.630;18.822;2022-07-12T05:33:20;2.30;;;2.20;;
53927;SDS011;39837;47.630;18.822;2022-07-12T05:36:04;1.83;;;1.83;;
53927;SDS011;39837;47.630;18.822;2022-07-12T05:38:48;6.15;;;2.95;;
53927;SDS011;39837;47.630;18.822;2022-07-12T05:41:32;2.08;;;1.85;;
53927;SDS011;39837;47.630;18.822;2022-07-12T05:44:16;2.10;;;2.00;;
53927;SDS011;39837;47.630;18.822;2022-07-12T05:47:02;3.47;;;1.92;;
53927;SDS011;39837;47.630;18.822;2022-07-12T05:49:47;2.00;;;1.90;;
53927;SDS011;39837;47.630;18.822;2022-07-12T05:52:30;2.08;;;2.00;;
53927;SDS011;39837;47.630;18.822;2022-07-12T05:55:33;2.38;;;2.17;;
53927;SDS011;39837;47.630;18.822;2022-07-12T05:58:18;2.28;;;2.00;;
53927;SDS011;39837;47.630;18.822;2022-07-12T06:01:03;8.80;;;3.60;;
53927;SDS011;39837;47.630;18.822;2022-07-12T06:03:47;7.93;;;1.90;;
53927;SDS011;39837;47.630;18.822;2022-07-12T06:06:31;2.10;;;1.85;;
53927;SDS011;39837;47.630;18.822;2022-07-12T06:09:15;1.80;;;1.70;;
53927;SDS011;39837;47.630;18.822;2022-07-12T06:12:00;4.45;;;1.65;;
53927;SDS011;39837;47.630;18.822;2022-07-12T06:14:44;3.78;;;1.50;;
53927;SDS011;39837;47.630;18.822;2022-07-12T06:17:27;2.10;;;1.88;;
53927;SDS011;39837;47.630;18.822;2022-07-12T06:20:11;2.28;;;2.00;;
53927;SDS011;39837;47.630;18.822;2022-07-12T06:22:56;1.48;;;1.48;;
53927;SDS011;39837;47.630;18.822;2022-07-12T06:25:40;5.25;;;2.00;;
53927;SDS011;39837;47.630;18.822;2022-07-12T06:28:24;1.88;;;1.77;;
53927;SDS011;39837;47.630;18.822;2022-07-12T06:31:07;8.38;;;2.33;;
53927;SDS011;39837;47.630;18.822;2022-07-12T06:33:51;1.42;;;1.40;;
53927;SDS011;39837;47.630;18.822;2022-07-12T06:36:35;2.90;;;1.67;;
53927;SDS011;39837;47.630;18.822;2022-07-12T06:39:19;1.40;;;1.40;;
53927;SDS011;39837;47.630;18.822;2022-07-12T06:42:03;0.90;;;0.90;;
53927;SDS011;39837;47.630;18.822;2022-07-12T06:44:47;1.15;;;1.08;;
53927;SDS011;39837;47.630;18.822;2022-07-12T06:47:31;0.90;;;0.90;;
53927;SDS011;39837;47.630;18.822;2022-07-12T06:50:15;4.10;;;0.90;;
53927;SDS011;39837;47.630;18.822;2022-07-12T06:52:59;2.92;;;1.73;;
53927;SDS011;39837;47.630;18.822;2022-07-12T06:55:43;0.88;;;0.88;;
53927;SDS011;39837;47.630;18.822;2022-07-12T06:58:27;0.88;;;0.88;;
53927;SDS011;39837;47.630;18.822;2022-07-12T07:01:11;6.40;;;0.88;;
53927;SDS011;39837;47.630;18.822;2022-07-12T07:03:55;1.60;;;1.08;;
53927;SDS011;39837;47.630;18.822;2022-07-12T07:06:39;1.13;;;0.60;;
53927;SDS011;39837;47.630;18.822;2022-07-12T07:09:23;0.90;;;0.73;;
53927;SDS011;39837;47.630;18.822;2022-07-12T07:12:07;0.82;;;0.82;;
53927;SDS011;39837;47.630;18.822;2022-07-12T07:14:51;0.93;;;0.88;;
53927;SDS011;39837;47.630;18.822;2022-07-12T07:17:35;2.30;;;0.95;;
53927;SDS011;39837;47.630;18.822;2022-07-12T07:20:19;3.40;;;0.75;;
53927;SDS011;39837;47.630;18.822;2022-07-12T07:23:03;3.25;;;1.05;;
53927;SDS011;39837;47.630;18.822;2022-07-12T07:25:48;3.80;;;0.80;;
53927;SDS011;39837;47.630;18.822;2022-07-12T07:28:32;3.00;;;0.93;;
53927;SDS011;39837;47.630;18.822;2022-07-12T07:31:16;0.80;;;0.80;;
53927;SDS011;39837;47.630;18.822;2022-07-12T07:34:00;0.93;;;0.70;;
53927;SDS011;39837;47.630;18.822;2022-07-12T07:36:44;0.57;;;0.57;;
53927;SDS011;39837;47.630;18.822;2022-07-12T07:39:28;0.73;;;0.73;;
53927;SDS011;39837;47.630;18.822;2022-07-12T07:42:12;2.13;;;0.88;;
53927;SDS011;39837;47.630;18.822;2022-07-12T07:44:57;0.75;;;0.70;;
53927;SDS011;39837;47.630;18.822;2022-07-12T07:47:47;10.05;;;1.35;;
53927;SDS011;39837;47.630;18.822;2022-07-12T07:50:32;0.88;;;0.73;;
53927;SDS011;39837;47.630;18.822;2022-07-12T07:53:16;0.85;;;0.85;;
53927;SDS011;39837;47.630;18.822;2022-07-12T07:56:00;0.98;;;0.88;;
53927;SDS011;39837;47.630;18.822;2022-07-12T07:58:44;0.90;;;0.90;;
53927;SDS011;39837;47.630;18.822;2022-07-12T08:01:28;3.42;;;0.85;;
53927;SDS011;39837;47.630;18.822;2022-07-12T08:04:35;2.35;;;0.90;;
53927;SDS011;39837;47.630;18.822;2022-07-12T08:07:19;1.03;;;1.03;;
53927;SDS011;39837;47.630;18.822;2022-07-12T08:10:04;0.57;;;0.57;;
53927;SDS011;39837;47.630;18.822;2022-07-12T08:12:48;3.15;;;0.93;;
53927;SDS011;39837;47.630;18.822;2022-07-12T08:15:32;1.57;;;0.97;;
53927;SDS011;39837;47.630;18.822;2022-07-12T08:18:16;6.00;;;0.68;;
53927;SDS011;39837;47.630;18.822;2022-07-12T08:21:00;0.70;;;0.70;;
53927;SDS011;39837;47.630;18.822;2022-07-12T08:23:44;0.53;;;0.53;;
53927;SDS011;39837;47.630;18.822;2022-07-12T08:26:28;0.63;;;0.63;;
53927;SDS011;39837;47.630;18.822;2022-07-12T08:29:12;1.20;;;0.90;;
53927;SDS011;39837;47.630;18.822;2022-07-12T08:31:56;1.10;;;0.80;;
53927;SDS011;39837;47.630;18.822;2022-07-12T08:34:40;4.03;;;0.60;;
53927;SDS011;39837;47.630;18.822;2022-07-12T08:37:24;0.52;;;0.52;;
53927;SDS011;39837;47.630;18.822;2022-07-12T08:40:09;0.60;;;0.60;;
53927;SDS011;39837;47.630;18.822;2022-07-12T08:42:56;0.77;;;0.77;;
53927;SDS011;39837;47.630;18.822;2022-07-12T08:45:40;2.70;;;1.20;;
53927;SDS011;39837;47.630;18.822;2022-07-12T08:48:25;0.50;;;0.50;;
53927;SDS011;39837;47.630;18.822;2022-07-12T08:51:12;0.30;;;0.30;;
53927;SDS011;39837;47.630;18.822;2022-07-12T08:54:05;0.50;;;0.50;;
53927;SDS011;39837;47.630;18.822;2022-07-12T08:56:55;0.65;;;0.63;;
53927;SDS011;39837;47.630;18.822;2022-07-12T08:59:41;0.98;;;0.90;;
53927;SDS011;39837;47.630;18.822;2022-07-12T09:02:35;3.00;;;0.90;;
53927;SDS011;39837;47.630;18.822;2022-07-12T09:05:31;2.60;;;0.77;;
53927;SDS011;39837;47.630;18.822;2022-07-12T09:08:15;0.50;;;0.50;;
53927;SDS011;39837;47.630;18.822;2022-07-12T09:11:01;0.60;;;0.60;;
53927;SDS011;39837;47.630;18.822;2022-07-12T09:16:32;0.80;;;0.80;;
53927;SDS011;39837;47.630;18.822;2022-07-12T09:19:17;3.20;;;0.80;;
53927;SDS011;39837;47.630;18.822;2022-07-12T09:22:03;2.17;;;0.80;;
53927;SDS011;39837;47.630;18.822;2022-07-12T09:24:49;0.70;;;0.70;;
53927;SDS011;39837;47.630;18.822;2022-07-12T09:27:33;4.97;;;0.60;;
53927;SDS011;39837;47.630;18.822;2022-07-12T09:30:18;5.07;;;1.42;;
53927;SDS011;39837;47.630;18.822;2022-07-12T09:33:03;6.63;;;1.00;;
53927;SDS011;39837;47.630;18.822;2022-07-12T09:36:06;0.93;;;0.80;;
53927;SDS011;39837;47.630;18.822;2022-07-12T09:38:52;0.45;;;0.45;;
53927;SDS011;39837;47.630;18.822;2022-07-12T09:41:37;3.05;;;0.70;;
53927;SDS011;39837;47.630;18.822;2022-07-12T09:44:21;0.60;;;0.60;;
53927;SDS011;39837;47.630;18.822;2022-07-12T09:47:08;0.70;;;0.70;;
53927;SDS011;39837;47.630;18.822;2022-07-12T09:49:57;5.38;;;0.93;;
53927;SDS011;39837;47.630;18.822;2022-07-12T09:52:41;1.48;;;1.05;;
53927;SDS011;39837;47.630;18.822;2022-07-12T09:55:25;2.13;;;0.82;;
53927;SDS011;39837;47.630;18.822;2022-07-12T09:58:13;9.63;;;1.20;;
53927;SDS011;39837;47.630;18.822;2022-07-12T10:00:58;1.20;;;1.10;;
53927;SDS011;39837;47.630;18.822;2022-07-12T10:03:46;3.30;;;1.27;;
53927;SDS011;39837;47.630;18.822;2022-07-12T10:06:32;2.08;;;1.27;;
53927;SDS011;39837;47.630;18.822;2022-07-12T10:09:15;0.82;;;0.82;;
53927;SDS011;39837;47.630;18.822;2022-07-12T10:12:00;1.08;;;1.08;;
53927;SDS011;39837;47.630;18.822;2022-07-12T10:14:44;0.70;;;0.70;;
53927;SDS011;39837;47.630;18.822;2022-07-12T10:17:28;0.80;;;0.80;;
53927;SDS011;39837;47.630;18.822;2022-07-12T10:20:17;10.95;;;1.08;;
53927;SDS011;39837;47.630;18.822;2022-07-12T10:31:46;2.17;;;1.35;;
53927;SDS011;39837;47.630;18.822;2022-07-12T10:34:30;2.95;;;1.17;;
53927;SDS011;39837;47.630;18.822;2022-07-12T10:37:14;7.13;;;0.98;;
53927;SDS011;39837;47.630;18.822;2022-07-12T10:40:15;1.55;;;1.45;;
53927;SDS011;39837;47.630;18.822;2022-07-12T10:45:48;5.78;;;1.15;;
53927;SDS011;39837;47.630;18.822;2022-07-12T10:48:33;6.82;;;0.95;;
53927;SDS011;39837;47.630;18.822;2022-07-12T10:51:17;2.25;;;1.15;;
53927;SDS011;39837;47.630;18.822;2022-07-12T10:54:19;1.05;;;1.05;;
53927;SDS011;39837;47.630;18.822;2022-07-12T10:57:05;2.05;;;1.00;;
53927;SDS011;39837;47.630;18.822;2022-07-12T10:59:50;1.55;;;1.17;;
53927;SDS011;39837;47.630;18.822;2022-07-12T11:05:26;0.80;;;0.80;;
53927;SDS011;39837;47.630;18.822;2022-07-12T11:08:14;0.82;;;0.65;;
53927;SDS011;39837;47.630;18.822;2022-07-12T11:10:58;0.70;;;0.70;;
53927;SDS011;39837;47.630;18.822;2022-07-12T11:13:42;0.77;;;0.75;;
53927;SDS011;39837;47.630;18.822;2022-07-12T11:16:27;2.13;;;0.70;;
53927;SDS011;39837;47.630;18.822;2022-07-12T11:19:14;0.90;;;0.90;;
53927;SDS011;39837;47.630;18.822;2022-07-12T11:21:58;0.70;;;0.70;;
53927;SDS011;39837;47.630;18.822;2022-07-12T11:24:42;0.70;;;0.70;;
53927;SDS011;39837;47.630;18.822;2022-07-12T11:27:27;0.80;;;0.80;;
53927;SDS011;39837;47.630;18.822;2022-07-12T11:30:11;0.63;;;0.63;;
53927;SDS011;39837;47.630;18.822;2022-07-12T11:32:57;0.52;;;0.52;;
53927;SDS011;39837;47.630;18.822;2022-07-12T11:35:45;6.30;;;0.95;;
53927;SDS011;39837;47.630;18.822;2022-07-12T11:38:30;1.55;;;0.85;;
53927;SDS011;39837;47.630;18.822;2022-07-12T11:41:15;0.80;;;0.80;;
53927;SDS011;39837;47.630;18.822;2022-07-12T11:43:59;1.30;;;0.90;;
53927;SDS011;39837;47.630;18.822;2022-07-12T11:46:48;0.70;;;0.70;;
53927;SDS011;39837;47.630;18.822;2022-07-12T11:49:33;2.15;;;0.98;;
53927;SDS011;39837;47.630;18.822;2022-07-12T11:52:17;1.02;;;0.80;;
53927;SDS011;39837;47.630;18.822;2022-07-12T11:55:01;3.25;;;0.90;;
53927;SDS011;39837;47.630;18.822;2022-07-12T11:57:51;2.05;;;1.02;;
53927;SDS011;39837;47.630;18.822;2022-07-12T12:00:35;1.92;;;0.85;;
53927;SDS011;39837;47.630;18.822;2022-07-12T12:03:20;1.85;;;0.82;;
53927;SDS011;39837;47.630;18.822;2022-07-12T12:06:08;1.10;;;1.02;;
53927;SDS011;39837;47.630;18.822;2022-07-12T12:08:51;0.70;;;0.70;;
53927;SDS011;39837;47.630;18.822;2022-07-12T12:11:35;0.80;;;0.80;;
53927;SDS011;39837;47.630;18.822;2022-07-12T12:14:20;2.47;;;0.93;;
53927;SDS011;39837;47.630;18.822;2022-07-12T12:17:11;0.70;;;0.70;;
53927;SDS011;39837;47.630;18.822;2022-07-12T12:19:56;0.57;;;0.57;;
53927;SDS011;39837;47.630;18.822;2022-07-12T12:22:40;2.08;;;0.75;;
53927;SDS011;39837;47.630;18.822;2022-07-12T12:25:25;0.82;;;0.80;;
53927;SDS011;39837;47.630;18.822;2022-07-12T12:28:10;0.77;;;0.77;;
53927;SDS011;39837;47.630;18.822;2022-07-12T12:30:56;2.40;;;0.70;;
53927;SDS011;39837;47.630;18.822;2022-07-12T12:33:44;2.10;;;0.75;;
53927;SDS011;39837;47.630;18.822;2022-07-12T12:36:31;0.55;;;0.55;;
53927;SDS011;39837;47.630;18.822;2022-07-12T12:39:29;0.60;;;0.60;;
53927;SDS011;39837;47.630;18.822;2022-07-12T12:42:14;1.15;;;0.57;;
53927;SDS011;39837;47.630;18.822;2022-07-12T12:45:07;0.60;;;0.60;;
53927;SDS011;39837;47.630;18.822;2022-07-12T12:48:07;0.60;;;0.60;;
53927;SDS011;39837;47.630;18.822;2022-07-12T12:50:55;0.60;;;0.60;;
53927;SDS011;39837;47.630;18.822;2022-07-12T12:53:54;2.47;;;0.68;;
53927;SDS011;39837;47.630;18.822;2022-07-12T12:56:40;0.60;;;0.60;;
53927;SDS011;39837;47.630;18.822;2022-07-12T12:59:24;1.75;;;0.70;;
53927;SDS011;39837;47.630;18.822;2022-07-12T13:02:08;0.70;;;0.70;;
53927;SDS011;39837;47.630;18.822;2022-07-12T13:04:52;0.80;;;0.80;;
53927;SDS011;39837;47.630;18.822;2022-07-12T13:07:36;5.72;;;0.93;;
53927;SDS011;39837;47.630;18.822;2022-07-12T13:10:24;0.50;;;0.50;;
53927;SDS011;39837;47.630;18.822;2022-07-12T13:13:09;0.60;;;0.60;;
53927;SDS011;39837;47.630;18.822;2022-07-12T13:15:53;1.20;;;0.60;;
53927;SDS011;39837;47.630;18.822;2022-07-12T13:18:39;0.60;;;0.60;;
53927;SDS011;39837;47.630;18.822;2022-07-12T13:21:23;0.55;;;0.55;;
53927;SDS011;39837;47.630;18.822;2022-07-12T13:24:07;0.60;;;0.60;;
53927;SDS011;39837;47.630;18.822;2022-07-12T13:26:51;0.50;;;0.50;;
53927;SDS011;39837;47.630;18.822;2022-07-12T13:29:35;2.30;;;0.80;;
53927;SDS011;39837;47.630;18.822;2022-07-12T13:32:19;0.50;;;0.50;;
53927;SDS011;39837;47.630;18.822;2022-07-12T13:35:03;2.08;;;0.90;;
53927;SDS011;39837;47.630;18.822;2022-07-12T13:40:32;0.90;;;0.63;;
53927;SDS011;39837;47.630;18.822;2022-07-12T13:43:16;0.70;;;0.70;;
53927;SDS011;39837;47.630;18.822;2022-07-12T13:46:00;0.43;;;0.43;;
53927;SDS011;39837;47.630;18.822;2022-07-12T13:48:45;0.70;;;0.70;;
53927;SDS011;39837;47.630;18.822;2022-07-12T13:51:29;0.80;;;0.80;;
53927;SDS011;39837;47.630;18.822;2022-07-12T13:54:13;0.82;;;0.82;;
53927;SDS011;39837;47.630;18.822;2022-07-12T13:56:57;0.80;;;0.80;;
53927;SDS011;39837;47.630;18.822;2022-07-12T13:59:41;0.60;;;0.60;;
53927;SDS011;39837;47.630;18.822;2022-07-12T14:02:25;1.75;;;0.70;;
53927;SDS011;39837;47.630;18.822;2022-07-12T14:05:10;0.60;;;0.60;;
53927;SDS011;39837;47.630;18.822;2022-07-12T14:07:55;0.70;;;0.70;;
53927;SDS011;39837;47.630;18.822;2022-07-12T14:10:39;0.90;;;0.90;;
53927;SDS011;39837;47.630;18.822;2022-07-12T14:13:23;2.22;;;1.23;;
53927;SDS011;39837;47.630;18.822;2022-07-12T14:16:07;3.67;;;1.05;;
53927;SDS011;39837;47.630;18.822;2022-07-12T14:18:51;0.70;;;0.70;;
53927;SDS011;39837;47.630;18.822;2022-07-12T14:21:35;5.65;;;1.08;;
53927;SDS011;39837;47.630;18.822;2022-07-12T14:24:19;6.25;;;0.90;;
53927;SDS011;39837;47.630;18.822;2022-07-12T14:27:03;0.70;;;0.70;;
53927;SDS011;39837;47.630;18.822;2022-07-12T14:29:47;0.68;;;0.68;;
53927;SDS011;39837;47.630;18.822;2022-07-12T14:32:32;1.10;;;1.10;;
53927;SDS011;39837;47.630;18.822;2022-07-12T14:35:16;0.50;;;0.50;;
53927;SDS011;39837;47.630;18.822;2022-07-12T14:38:00;0.50;;;0.50;;
53927;SDS011;39837;47.630;18.822;2022-07-12T14:40:44;1.13;;;0.88;;
53927;SDS011;39837;47.630;18.822;2022-07-12T14:43:29;1.65;;;0.70;;
53927;SDS011;39837;47.630;18.822;2022-07-12T14:46:13;0.70;;;0.70;;
53927;SDS011;39837;47.630;18.822;2022-07-12T14:48:57;0.55;;;0.55;;
53927;SDS011;39837;47.630;18.822;2022-07-12T14:51:41;0.63;;;0.63;;
53927;SDS011;39837;47.630;18.822;2022-07-12T14:54:25;7.97;;;0.65;;
53927;SDS011;39837;47.630;18.822;2022-07-12T14:57:09;3.53;;;0.90;;
53927;SDS011;39837;47.630;18.822;2022-07-12T14:59:53;0.52;;;0.52;;
53927;SDS011;39837;47.630;18.822;2022-07-12T15:02:37;1.10;;;1.00;;
53927;SDS011;39837;47.630;18.822;2022-07-12T15:05:21;4.70;;;0.80;;
53927;SDS011;39837;47.630;18.822;2022-07-12T15:08:05;0.73;;;0.73;;
53927;SDS011;39837;47.630;18.822;2022-07-12T15:10:50;2.00;;;0.95;;
53927;SDS011;39837;47.630;18.822;2022-07-12T15:13:34;2.70;;;0.93;;
53927;SDS011;39837;47.630;18.822;2022-07-12T15:16:18;0.90;;;0.90;;
53927;SDS011;39837;47.630;18.822;2022-07-12T15:19:02;2.22;;;0.90;;
53927;SDS011;39837;47.630;18.822;2022-07-12T15:21:46;0.70;;;0.70;;
53927;SDS011;39837;47.630;18.822;2022-07-12T15:24:30;0.88;;;0.88;;
53927;SDS011;39837;47.630;18.822;2022-07-12T15:27:14;0.70;;;0.70;;
53927;SDS011;39837;47.630;18.822;2022-07-12T15:29:58;0.80;;;0.70;;
53927;SDS011;39837;47.630;18.822;2022-07-12T15:32:43;0.70;;;0.70;;
53927;SDS011;39837;47.630;18.822;2022-07-12T15:35:27;0.57;;;0.57;;
53927;SDS011;39837;47.630;18.822;2022-07-12T15:38:11;1.55;;;0.77;;
53927;SDS011;39837;47.630;18.822;2022-07-12T15:40:55;0.90;;;0.90;;
53927;SDS011;39837;47.630;18.822;2022-07-12T15:43:40;0.60;;;0.60;;
53927;SDS011;39837;47.630;18.822;2022-07-12T15:49:09;0.75;;;0.75;;
53927;SDS011;39837;47.630;18.822;2022-07-12T15:51:55;0.93;;;0.93;;
53927;SDS011;39837;47.630;18.822;2022-07-12T15:54:58;0.60;;;0.60;;
53927;SDS011;39837;47.630;18.822;2022-07-12T15:57:43;1.10;;;1.00;;
53927;SDS011;39837;47.630;18.822;2022-07-12T16:00:27;1.95;;;0.73;;
53927;SDS011;39837;47.630;18.822;2022-07-12T16:03:11;0.82;;;0.77;;
53927;SDS011;39837;47.630;18.822;2022-07-12T16:05:59;10.30;;;0.87;;
53927;SDS011;39837;47.630;18.822;2022-07-12T16:08:45;1.77;;;1.05;;
53927;SDS011;39837;47.630;18.822;2022-07-12T16:11:31;0.80;;;0.80;;
53927;SDS011;39837;47.630;18.822;2022-07-12T16:14:15;0.70;;;0.70;;
53927;SDS011;39837;47.630;18.822;2022-07-12T16:17:00;0.70;;;0.70;;
53927;SDS011;39837;47.630;18.822;2022-07-12T16:22:30;1.27;;;0.70;;
53927;SDS011;39837;47.630;18.822;2022-07-12T16:25:14;0.77;;;0.77;;
53927;SDS011;39837;47.630;18.822;2022-07-12T16:27:58;0.95;;;0.88;;
53927;SDS011;39837;47.630;18.822;2022-07-12T16:30:42;0.88;;;0.68;;
53927;SDS011;39837;47.630;18.822;2022-07-12T16:33:26;0.73;;;0.68;;
53927;SDS011;39837;47.630;18.822;2022-07-12T16:36:10;0.73;;;0.73;;
53927;SDS011;39837;47.630;18.822;2022-07-12T16:38:54;0.70;;;0.70;;
53927;SDS011;39837;47.630;18.822;2022-07-12T16:41:39;0.80;;;0.80;;
53927;SDS011;39837;47.630;18.822;2022-07-12T16:44:24;0.70;;;0.70;;